createdAt,value
2022-10-31T00:00:14.537Z,0.70
2022-10-31T00:03:17.407Z,0.70
2022-10-31T00:06:20.466Z,0.95
2022-10-31T00:09:23.414Z,0.80
2022-10-31T00:12:26.455Z,0.70
2022-10-31T00:15:30.426Z,0.70
2022-10-31T00:18:33.484Z,0.70
2022-10-31T00:21:30.033Z,0.90
2022-10-31T00:24:27.459Z,1.67
2022-10-31T00:27:31.432Z,0.70
2022-10-31T00:30:34.476Z,0.73
2022-10-31T00:33:39.443Z,0.90
2022-10-31T00:36:42.449Z,0.70
2022-10-31T00:39:45.461Z,0.60
2022-10-31T00:42:50.447Z,0.88
2022-10-31T00:45:54.477Z,0.80
2022-10-31T00:48:57.457Z,0.77
2022-10-31T00:52:01.454Z,0.77
2022-10-31T00:55:05.475Z,0.80
2022-10-31T00:58:08.503Z,0.70
2022-10-31T01:01:12.594Z,0.70
2022-10-31T01:04:15.471Z,0.82
2022-10-31T01:07:21.488Z,0.77
2022-10-31T01:10:26.463Z,0.63
2022-10-31T01:13:29.495Z,0.80
2022-10-31T01:16:33.464Z,0.80
2022-10-31T01:19:36.501Z,0.80
2022-10-31T01:22:34.062Z,0.90
2022-10-31T01:25:31.539Z,0.80
2022-10-31T01:28:35.459Z,0.70
2022-10-31T01:31:41.505Z,0.70
2022-10-31T01:34:45.483Z,0.65
2022-10-31T01:37:48.492Z,0.80
2022-10-31T01:40:51.493Z,0.75
2022-10-31T01:44:05.491Z,0.70
2022-10-31T01:47:44.480Z,0.70
2022-10-31T01:50:52.478Z,0.70
2022-10-31T01:53:56.491Z,0.70
2022-10-31T01:57:01.489Z,0.80
2022-10-31T02:00:17.507Z,0.80
2022-10-31T02:03:21.537Z,1.00
2022-10-31T02:06:34.476Z,0.88
2022-10-31T02:09:37.520Z,1.23
2022-10-31T02:12:40.492Z,1.17
2022-10-31T02:15:46.589Z,0.82
2022-10-31T02:18:50.492Z,0.70
2022-10-31T02:21:56.539Z,0.60
2022-10-31T02:25:13.078Z,0.55
2022-10-31T02:28:35.561Z,0.80
2022-10-31T02:32:10.497Z,1.05
2022-10-31T02:35:22.549Z,0.90
2022-10-31T02:38:37.532Z,1.05
2022-10-31T02:42:17.543Z,1.02
2022-10-31T02:45:37.536Z,1.00
2022-10-31T02:48:44.515Z,0.82
2022-10-31T02:51:48.557Z,0.95
2022-10-31T02:54:51.519Z,0.93
2022-10-31T02:57:55.543Z,0.90
2022-10-31T03:01:26.579Z,0.75
2022-10-31T03:04:32.541Z,0.73
2022-10-31T03:07:41.525Z,0.90
2022-10-31T03:10:53.649Z,0.70
2022-10-31T03:14:16.522Z,0.82
2022-10-31T03:17:37.560Z,0.90
2022-10-31T03:20:50.542Z,0.80
2022-10-31T03:26:53.150Z,0.68
2022-10-31T03:29:53.562Z,0.60
2022-10-31T03:33:05.545Z,0.70
2022-10-31T03:36:10.564Z,0.80
2022-10-31T03:39:13.562Z,0.70
2022-10-31T03:42:23.562Z,1.20
2022-10-31T03:45:31.578Z,1.45
2022-10-31T03:48:36.540Z,0.70
2022-10-31T03:51:40.562Z,0.80
2022-10-31T03:55:02.562Z,0.70
2022-10-31T03:58:26.562Z,0.50
2022-10-31T04:01:33.749Z,0.60
2022-10-31T04:04:36.540Z,0.57
2022-10-31T04:07:44.577Z,0.60
2022-10-31T04:10:47.555Z,0.50
2022-10-31T04:13:53.608Z,0.60
2022-10-31T04:16:58.553Z,0.63
2022-10-31T04:20:06.612Z,0.50
2022-10-31T04:23:14.563Z,0.60
2022-10-31T04:26:18.647Z,0.60
2022-10-31T04:29:22.561Z,0.70
2022-10-31T04:32:25.607Z,0.60
2022-10-31T04:35:47.565Z,0.63
2022-10-31T04:39:10.607Z,0.60
2022-10-31T04:42:48.600Z,0.60
2022-10-31T04:46:13.612Z,0.65
2022-10-31T04:49:38.601Z,0.50
2022-10-31T04:53:03.578Z,0.60
2022-10-31T04:56:40.594Z,0.45
2022-10-31T05:00:09.582Z,0.50
2022-10-31T05:03:34.605Z,0.60
2022-10-31T05:06:59.587Z,0.50
2022-10-31T05:10:25.750Z,0.60
2022-10-31T05:13:51.590Z,0.50
2022-10-31T05:17:41.623Z,0.45
2022-10-31T05:21:23.581Z,0.60
2022-10-31T05:24:53.629Z,0.60
2022-10-31T05:28:10.169Z,0.70
2022-10-31T05:31:27.651Z,0.50
2022-10-31T05:34:52.616Z,0.60
2022-10-31T05:38:50.629Z,0.40
2022-10-31T05:42:16.600Z,0.88
2022-10-31T05:45:39.646Z,0.65
2022-10-31T05:49:23.617Z,0.70
2022-10-31T05:53:11.625Z,0.60
2022-10-31T05:56:35.616Z,0.85
2022-10-31T06:00:03.630Z,0.70
2022-10-31T06:03:38.683Z,0.73
2022-10-31T06:07:06.603Z,0.60
2022-10-31T06:10:30.665Z,0.80
2022-10-31T06:13:55.614Z,0.68
2022-10-31T06:17:26.673Z,0.68
2022-10-31T06:21:14.960Z,0.80
2022-10-31T06:24:42.659Z,0.60
2022-10-31T06:28:27.664Z,0.80
2022-10-31T06:32:03.618Z,0.60
2022-10-31T06:35:31.659Z,0.70
2022-10-31T06:38:56.649Z,0.70
2022-10-31T06:42:20.632Z,0.70
2022-10-31T06:45:44.683Z,0.60
2022-10-31T06:49:13.646Z,0.63
2022-10-31T06:52:44.661Z,0.60
2022-10-31T06:56:07.626Z,0.60
2022-10-31T06:59:37.661Z,0.80
2022-10-31T07:03:29.654Z,0.77
2022-10-31T07:06:53.660Z,0.80
2022-10-31T07:10:16.697Z,0.75
2022-10-31T07:13:49.700Z,0.70
2022-10-31T07:17:14.809Z,0.60
2022-10-31T07:20:38.666Z,0.80
2022-10-31T07:24:04.675Z,0.68
2022-10-31T07:27:55.676Z,0.60
2022-10-31T07:31:19.679Z,0.63
2022-10-31T07:34:47.775Z,0.60
2022-10-31T07:38:20.694Z,0.70
2022-10-31T07:41:44.648Z,0.80
2022-10-31T07:45:11.699Z,1.45
2022-10-31T07:48:57.671Z,1.55
2022-10-31T07:52:40.684Z,1.20
2022-10-31T07:56:33.665Z,0.77
2022-10-31T07:59:58.715Z,0.88
2022-10-31T08:03:33.672Z,0.90
2022-10-31T08:07:15.713Z,0.80
2022-10-31T08:10:46.678Z,3.47
2022-10-31T08:14:09.710Z,1.60
2022-10-31T08:17:34.670Z,0.98
2022-10-31T08:21:01.748Z,1.00
2022-10-31T08:24:26.691Z,0.90
2022-10-31T08:27:50.842Z,1.00
2022-10-31T08:31:14.675Z,0.60
2022-10-31T08:34:58.704Z,0.75
2022-10-31T08:38:28.741Z,0.80
2022-10-31T08:41:53.694Z,0.85
2022-10-31T08:45:19.742Z,0.77
2022-10-31T08:48:44.682Z,0.75
2022-10-31T08:52:12.032Z,0.82
2022-10-31T08:55:38.698Z,0.90
2022-10-31T08:59:16.754Z,1.00
2022-10-31T09:02:58.710Z,0.80
2022-10-31T09:06:22.826Z,1.00
2022-10-31T09:09:46.693Z,0.80
2022-10-31T09:13:15.748Z,0.70
2022-10-31T09:17:00.820Z,0.73
2022-10-31T09:20:41.829Z,0.80
2022-10-31T09:24:05.718Z,1.30
2022-10-31T09:27:32.772Z,1.00
2022-10-31T09:30:57.726Z,0.90
2022-10-31T09:34:39.736Z,0.80
2022-10-31T09:38:12.769Z,0.80
2022-10-31T09:41:40.711Z,0.80
2022-10-31T09:45:13.765Z,0.75
2022-10-31T09:48:58.715Z,0.90
2022-10-31T09:52:53.751Z,1.02
2022-10-31T09:56:16.718Z,0.90
2022-10-31T09:59:53.754Z,0.88
2022-10-31T10:03:25.740Z,0.90
2022-10-31T10:06:59.769Z,0.95
2022-10-31T10:10:45.786Z,0.70
2022-10-31T10:14:45.737Z,1.00
2022-10-31T10:18:21.780Z,0.98
2022-10-31T10:22:08.774Z,0.90
2022-10-31T10:25:53.778Z,1.17
2022-10-31T10:29:45.743Z,0.80
2022-10-31T10:33:30.772Z,1.00
2022-10-31T10:37:09.773Z,0.80
2022-10-31T10:40:41.224Z,0.90
2022-10-31T10:44:07.779Z,0.80
2022-10-31T10:47:47.763Z,0.90
2022-10-31T10:51:25.638Z,0.80
2022-10-31T10:54:59.782Z,1.13
2022-10-31T10:58:24.773Z,0.88
2022-10-31T11:01:47.765Z,0.90
2022-10-31T11:05:14.797Z,0.85
2022-10-31T11:08:42.764Z,0.80
2022-10-31T11:11:59.783Z,0.90
2022-10-31T11:15:53.774Z,2.55
2022-10-31T11:19:28.781Z,2.60
2022-10-31T11:22:51.771Z,0.90
2022-10-31T11:26:20.796Z,1.10
2022-10-31T11:29:45.811Z,0.82
2022-10-31T11:33:03.092Z,1.00
2022-10-31T11:36:28.373Z,1.00
2022-10-31T11:39:51.784Z,1.58
2022-10-31T11:43:14.780Z,1.00
2022-10-31T11:46:59.811Z,1.00
2022-10-31T11:50:27.783Z,1.10
2022-10-31T11:53:55.567Z,5.13
2022-10-31T11:57:21.779Z,1.17
2022-10-31T12:00:53.832Z,1.10
2022-10-31T12:04:28.787Z,1.00
2022-10-31T12:07:53.818Z,1.00
2022-10-31T12:11:53.797Z,1.10
2022-10-31T12:15:24.789Z,0.90
2022-10-31T12:19:02.874Z,0.90
2022-10-31T12:22:45.837Z,0.90
2022-10-31T12:26:15.917Z,1.00
2022-10-31T12:30:34.813Z,1.00
2022-10-31T12:34:07.846Z,1.10
2022-10-31T12:38:06.395Z,1.10
2022-10-31T12:41:46.826Z,1.10
2022-10-31T12:45:21.800Z,1.13
2022-10-31T12:48:44.819Z,1.10
2022-10-31T12:52:37.848Z,1.13
2022-10-31T12:56:13.816Z,1.37
2022-10-31T12:59:41.988Z,1.20
2022-10-31T13:03:14.801Z,1.20
2022-10-31T13:06:44.925Z,1.30
2022-10-31T13:10:19.824Z,1.40
2022-10-31T13:14:07.863Z,1.05
2022-10-31T13:17:53.802Z,1.50
2022-10-31T13:21:19.869Z,1.20
2022-10-31T13:24:51.846Z,1.27
2022-10-31T13:28:36.853Z,1.30
2022-10-31T13:32:00.865Z,1.20
2022-10-31T13:35:36.821Z,1.30
2022-10-31T13:39:06.928Z,1.40
2022-10-31T13:43:11.833Z,1.23
2022-10-31T13:50:06.816Z,1.13
2022-10-31T13:53:35.853Z,1.30
2022-10-31T13:57:07.823Z,1.38
2022-10-31T14:00:36.891Z,1.30
2022-10-31T14:04:22.189Z,1.20
2022-10-31T14:07:47.874Z,1.38
2022-10-31T14:11:12.950Z,1.40
2022-10-31T14:14:38.861Z,1.33
2022-10-31T14:18:10.892Z,1.25
2022-10-31T14:21:40.863Z,1.17
2022-10-31T14:25:04.862Z,1.15
2022-10-31T14:28:59.871Z,1.25
2022-10-31T14:32:28.864Z,1.17
2022-10-31T14:36:20.019Z,1.10
2022-10-31T14:40:09.466Z,1.23
2022-10-31T14:43:48.895Z,1.30
2022-10-31T14:47:44.857Z,1.50
2022-10-31T14:51:17.891Z,1.30
2022-10-31T14:54:53.842Z,1.33
2022-10-31T14:58:21.890Z,1.40
2022-10-31T15:01:54.826Z,1.40
2022-10-31T15:05:22.928Z,1.35
2022-10-31T15:08:50.851Z,1.40
2022-10-31T15:12:15.895Z,1.45
2022-10-31T15:15:44.379Z,1.40
2022-10-31T15:19:16.864Z,1.48
2022-10-31T15:22:51.924Z,1.35
2022-10-31T15:26:22.869Z,1.50
2022-10-31T15:29:48.905Z,1.60
2022-10-31T15:33:23.885Z,1.50
2022-10-31T15:36:55.921Z,1.52
2022-10-31T15:40:33.890Z,1.30
2022-10-31T15:44:17.964Z,1.20
2022-10-31T15:47:46.897Z,1.75
2022-10-31T15:51:16.922Z,1.70
2022-10-31T15:54:41.899Z,1.58
2022-10-31T15:58:07.921Z,1.60
2022-10-31T16:01:45.980Z,1.67
2022-10-31T16:05:12.935Z,1.60
2022-10-31T16:08:49.918Z,1.30
2022-10-31T16:12:14.256Z,1.60
2022-10-31T16:15:41.905Z,1.45
2022-10-31T16:19:07.914Z,1.63
2022-10-31T16:22:56.948Z,1.60
2022-10-31T16:26:23.876Z,1.65
2022-10-31T16:29:51.930Z,1.60
2022-10-31T16:33:16.885Z,1.83
2022-10-31T16:36:50.930Z,1.60
2022-10-31T16:40:15.953Z,1.70
2022-10-31T16:43:39.931Z,1.80
2022-10-31T16:47:03.927Z,1.65
2022-10-31T16:50:29.935Z,1.70
2022-10-31T16:53:55.191Z,1.52
2022-10-31T16:57:19.925Z,1.98
2022-10-31T17:00:43.994Z,1.70
2022-10-31T17:04:07.932Z,1.80
2022-10-31T17:07:32.956Z,1.83
2022-10-31T17:10:57.932Z,2.03
2022-10-31T17:14:21.946Z,1.80
2022-10-31T17:17:45.919Z,1.70
2022-10-31T17:21:14.965Z,1.70
2022-10-31T17:24:37.911Z,2.05
2022-10-31T17:28:00.962Z,1.95
2022-10-31T17:31:37.908Z,2.15
2022-10-31T17:35:02.060Z,2.00
2022-10-31T17:38:25.914Z,2.00
2022-10-31T17:41:49.961Z,2.13
2022-10-31T17:45:14.949Z,1.95
2022-10-31T17:48:38.964Z,2.13
2022-10-31T17:52:02.995Z,2.00
2022-10-31T17:55:20.982Z,1.77
2022-10-31T17:58:44.953Z,1.90
2022-10-31T18:02:10.035Z,2.13
2022-10-31T18:05:33.967Z,2.17
2022-10-31T18:08:58.946Z,1.90
2022-10-31T18:12:22.993Z,2.45
2022-10-31T18:15:46.983Z,2.30
2022-10-31T18:19:12.992Z,2.33
2022-10-31T18:22:35.936Z,2.45
2022-10-31T18:25:58.994Z,2.42
2022-10-31T18:29:15.971Z,2.03
2022-10-31T18:32:38.996Z,1.83
2022-10-31T18:36:03.939Z,1.88
2022-10-31T18:39:26.978Z,1.70
2022-10-31T18:42:44.589Z,1.55
2022-10-31T18:46:02.994Z,1.90
2022-10-31T18:49:30.946Z,2.55
2022-10-31T18:52:55.987Z,1.95
2022-10-31T18:56:23.954Z,1.55
2022-10-31T18:59:47.997Z,1.98
2022-10-31T19:03:14.950Z,1.90
2022-10-31T19:06:40.980Z,1.40
2022-10-31T19:10:04.964Z,1.50
2022-10-31T19:13:29.995Z,1.40
2022-10-31T19:16:53.368Z,1.55
2022-10-31T19:20:17.962Z,1.48
2022-10-31T19:23:42.018Z,1.38
2022-10-31T19:26:59.010Z,1.13
2022-10-31T19:30:23.979Z,1.75
2022-10-31T19:33:49.056Z,1.20
2022-10-31T19:37:14.012Z,1.17
2022-10-31T19:40:38.966Z,1.08
2022-10-31T19:44:02.031Z,1.30
2022-10-31T19:47:25.966Z,1.10
2022-10-31T19:50:49.079Z,1.00
2022-10-31T19:54:12.982Z,1.02
2022-10-31T19:58:00.334Z,0.98
2022-10-31T20:01:28.070Z,1.13
2022-10-31T20:04:51.020Z,1.00
2022-10-31T20:08:16.003Z,1.10
2022-10-31T20:11:41.031Z,1.10
2022-10-31T20:15:05.000Z,1.25
2022-10-31T20:18:29.029Z,0.90
2022-10-31T20:21:55.009Z,1.05
2022-10-31T20:25:19.036Z,1.05
2022-10-31T20:28:45.019Z,1.42
2022-10-31T20:32:08.029Z,1.02
2022-10-31T20:35:33.032Z,1.20
2022-10-31T20:38:58.043Z,0.90
2022-10-31T20:42:22.009Z,1.20
2022-10-31T20:45:40.046Z,1.02
2022-10-31T20:49:04.022Z,1.20
2022-10-31T20:52:28.036Z,1.00
2022-10-31T20:55:53.050Z,1.00
2022-10-31T20:59:17.015Z,0.90
2022-10-31T21:02:40.112Z,1.05
2022-10-31T21:06:17.013Z,1.10
2022-10-31T21:09:40.058Z,0.93
2022-10-31T21:13:05.015Z,1.00
2022-10-31T21:16:31.064Z,1.17
2022-10-31T21:19:56.048Z,0.80
2022-10-31T21:23:20.036Z,1.00
2022-10-31T21:26:46.092Z,1.10
2022-10-31T21:30:11.038Z,0.90
2022-10-31T21:33:36.080Z,0.90
2022-10-31T21:37:00.073Z,0.90
2022-10-31T21:40:24.074Z,1.10
2022-10-31T21:43:45.634Z,1.10
2022-10-31T21:47:04.085Z,1.10
2022-10-31T21:50:28.045Z,1.10
2022-10-31T21:54:10.082Z,1.33
2022-10-31T21:57:34.054Z,0.93
2022-10-31T22:00:58.115Z,0.90
2022-10-31T22:04:22.046Z,1.00
2022-10-31T22:07:46.093Z,1.10
2022-10-31T22:11:11.042Z,1.10
2022-10-31T22:14:35.152Z,1.02
2022-10-31T22:17:59.300Z,0.90
2022-10-31T22:21:29.108Z,1.20
2022-10-31T22:24:53.052Z,1.17
2022-10-31T22:28:17.106Z,1.30
2022-10-31T22:31:42.056Z,1.10
2022-10-31T22:35:06.101Z,1.15
2022-10-31T22:38:30.099Z,1.20
2022-10-31T22:41:53.069Z,1.10
2022-10-31T22:45:17.118Z,1.20
2022-10-31T22:48:41.069Z,1.30
2022-10-31T22:52:09.125Z,1.60
2022-10-31T22:55:33.099Z,1.15
2022-10-31T22:58:57.094Z,1.10
2022-10-31T23:02:21.207Z,1.40
2022-10-31T23:05:44.096Z,1.17
2022-10-31T23:09:09.132Z,1.08
2022-10-31T23:12:51.237Z,1.30
2022-10-31T23:16:15.107Z,1.10
2022-10-31T23:19:44.142Z,1.00
2022-10-31T23:23:08.086Z,0.90
2022-10-31T23:26:49.191Z,1.00
2022-10-31T23:30:14.095Z,1.02
2022-10-31T23:33:38.124Z,0.90
2022-10-31T23:37:02.171Z,1.00
2022-10-31T23:40:27.143Z,1.02
2022-10-31T23:43:51.147Z,1.00
2022-10-31T23:47:09.711Z,0.98
2022-10-31T23:50:27.133Z,0.90
2022-10-31T23:53:51.138Z,1.08
2022-10-31T23:57:15.123Z,1.10
